< < Back
Terminal Aerodrome Forecast


Current Version              Previous Versions:   1  2  3  4  5  6  7  8  9  

Terminal Aerodrome Forecast

458
FTUS44 KBMX 220500
TAFMGM
TAF
KMGM 220533Z 2206/2306 00000KT P6SM SKC
     FM221400 07006KT P6SM BKN050
     FM221600 11010KT P6SM BKN025
     FM230300 09008KT 5SM -RA BKN020=

Latest METAR

217
SAUS80 KWBC 230100 RRB
MTRMGM
METAR KMGM 230053Z 09009KT 10SM OVC027 16/12 A3017 RMK AO2 RAE05 SLP214
P0000 T01610117


USA.gov is the U.S. government's official web portal to all federal, state and local government web resources and services.